sensor_id;sensor_type;location;lat;lon;timestamp;temperature;humidity
56861;DHT22;42744;51.094;3.490;2022-08-11T00:00:56;18.50;99.90
56861;DHT22;42744;51.094;3.490;2022-08-11T00:03:23;18.50;99.90
56861;DHT22;42744;51.094;3.490;2022-08-11T00:05:55;18.50;99.90
56861;DHT22;42744;51.094;3.490;2022-08-11T00:08:26;18.40;99.90
56861;DHT22;42744;51.094;3.490;2022-08-11T00:10:57;18.40;99.90
56861;DHT22;42744;51.094;3.490;2022-08-11T00:13:36;18.40;99.90
56861;DHT22;42744;51.094;3.490;2022-08-11T00:16:21;18.30;99.90
56861;DHT22;42744;51.094;3.490;2022-08-11T00:18:50;18.30;99.90
56861;DHT22;42744;51.094;3.490;2022-08-11T00:21:19;18.20;99.90
56861;DHT22;42744;51.094;3.490;2022-08-11T00:23:53;18.10;99.90
56861;DHT22;42744;51.094;3.490;2022-08-11T00:26:20;18.10;99.90
56861;DHT22;42744;51.094;3.490;2022-08-11T00:28:47;18.00;99.90
56861;DHT22;42744;51.094;3.490;2022-08-11T00:31:23;18.00;99.90
56861;DHT22;42744;51.094;3.490;2022-08-11T00:33:51;18.00;99.90
56861;DHT22;42744;51.094;3.490;2022-08-11T00:36:19;18.00;99.90
56861;DHT22;42744;51.094;3.490;2022-08-11T00:38:50;18.00;99.90
56861;DHT22;42744;51.094;3.490;2022-08-11T00:41:21;18.00;99.90
56861;DHT22;42744;51.094;3.490;2022-08-11T00:46:55;18.00;99.90
56861;DHT22;42744;51.094;3.490;2022-08-11T00:52:07;17.90;99.90
56861;DHT22;42744;51.094;3.490;2022-08-11T00:55:02;17.80;99.90
56861;DHT22;42744;51.094;3.490;2022-08-11T01:14:19;17.80;99.90
56861;DHT22;42744;51.094;3.490;2022-08-11T01:17:53;17.70;99.90
56861;DHT22;42744;51.094;3.490;2022-08-11T01:33:51;17.50;99.90
56861;DHT22;42744;51.094;3.490;2022-08-11T01:54:26;17.20;99.90
56861;DHT22;42744;51.094;3.490;2022-08-11T01:57:11;17.10;99.90
56861;DHT22;42744;51.094;3.490;2022-08-11T01:59:47;17.10;99.90
56861;DHT22;42744;51.094;3.490;2022-08-11T02:08:14;17.00;99.90
56861;DHT22;42744;51.094;3.490;2022-08-11T02:10:53;17.00;99.90
56861;DHT22;42744;51.094;3.490;2022-08-11T02:25:36;16.80;99.90
56861;DHT22;42744;51.094;3.490;2022-08-11T02:30:50;16.70;99.90
56861;DHT22;42744;51.094;3.490;2022-08-11T02:33:42;16.70;99.90
56861;DHT22;42744;51.094;3.490;2022-08-11T02:36:17;16.70;99.90
56861;DHT22;42744;51.094;3.490;2022-08-11T02:39:02;16.60;99.90
56861;DHT22;42744;51.094;3.490;2022-08-11T02:41:44;16.60;99.90
56861;DHT22;42744;51.094;3.490;2022-08-11T02:44:49;16.50;99.90
56861;DHT22;42744;51.094;3.490;2022-08-11T02:51:12;16.50;99.90
56861;DHT22;42744;51.094;3.490;2022-08-11T02:54:11;16.50;99.90
56861;DHT22;42744;51.094;3.490;2022-08-11T02:57:08;16.50;99.90
56861;DHT22;42744;51.094;3.490;2022-08-11T03:02:31;16.40;99.90
56861;DHT22;42744;51.094;3.490;2022-08-11T03:08:02;16.40;99.90
56861;DHT22;42744;51.094;3.490;2022-08-11T03:14:19;16.40;99.90
56861;DHT22;42744;51.094;3.490;2022-08-11T03:22:39;16.30;99.90
56861;DHT22;42744;51.094;3.490;2022-08-11T03:25:37;16.20;99.90
56861;DHT22;42744;51.094;3.490;2022-08-11T03:28:33;16.20;99.90
56861;DHT22;42744;51.094;3.490;2022-08-11T03:31:19;16.20;99.90
56861;DHT22;42744;51.094;3.490;2022-08-11T03:33:56;16.20;99.90
56861;DHT22;42744;51.094;3.490;2022-08-11T03:37:04;16.10;99.90
56861;DHT22;42744;51.094;3.490;2022-08-11T03:42:41;16.10;99.90
56861;DHT22;42744;51.094;3.490;2022-08-11T03:45:34;16.10;99.90
56861;DHT22;42744;51.094;3.490;2022-08-11T03:51:14;16.00;99.90
56861;DHT22;42744;51.094;3.490;2022-08-11T04:16:41;15.70;99.90
56861;DHT22;42744;51.094;3.490;2022-08-11T04:25:32;15.70;99.90
56861;DHT22;42744;51.094;3.490;2022-08-11T04:40:02;15.70;99.90
56861;DHT22;42744;51.094;3.490;2022-08-11T05:10:18;15.90;99.90
56861;DHT22;42744;51.094;3.490;2022-08-11T05:12:59;15.90;99.90
56861;DHT22;42744;51.094;3.490;2022-08-11T05:15:52;15.90;99.90
56861;DHT22;42744;51.094;3.490;2022-08-11T05:18:46;15.90;99.90
56861;DHT22;42744;51.094;3.490;2022-08-11T05:21:33;16.00;99.90
56861;DHT22;42744;51.094;3.490;2022-08-11T05:24:25;16.00;99.90
56861;DHT22;42744;51.094;3.490;2022-08-11T05:27:14;16.00;99.90
56861;DHT22;42744;51.094;3.490;2022-08-11T05:30:07;16.00;99.90
56861;DHT22;42744;51.094;3.490;2022-08-11T05:33:02;16.10;99.90
56861;DHT22;42744;51.094;3.490;2022-08-11T05:35:47;16.20;99.90
56861;DHT22;42744;51.094;3.490;2022-08-11T05:38:20;16.20;99.90
56861;DHT22;42744;51.094;3.490;2022-08-11T05:41:06;16.20;99.90
56861;DHT22;42744;51.094;3.490;2022-08-11T05:43:54;16.30;99.90
56861;DHT22;42744;51.094;3.490;2022-08-11T05:46:41;16.30;99.90
56861;DHT22;42744;51.094;3.490;2022-08-11T05:49:31;16.40;99.90
56861;DHT22;42744;51.094;3.490;2022-08-11T05:52:20;16.50;99.90
56861;DHT22;42744;51.094;3.490;2022-08-11T05:55:08;16.50;99.90
56861;DHT22;42744;51.094;3.490;2022-08-11T05:57:59;16.60;99.90
56861;DHT22;42744;51.094;3.490;2022-08-11T06:00:27;16.80;99.90
56861;DHT22;42744;51.094;3.490;2022-08-11T06:02:57;16.90;99.90
56861;DHT22;42744;51.094;3.490;2022-08-11T06:05:36;17.00;99.90
56861;DHT22;42744;51.094;3.490;2022-08-11T06:08:04;17.10;99.90
56861;DHT22;42744;51.094;3.490;2022-08-11T06:10:35;17.10;99.90
56861;DHT22;42744;51.094;3.490;2022-08-11T06:13:02;17.20;99.90
56861;DHT22;42744;51.094;3.490;2022-08-11T06:15:31;17.20;99.90
56861;DHT22;42744;51.094;3.490;2022-08-11T06:18:00;17.30;99.90
56861;DHT22;42744;51.094;3.490;2022-08-11T06:20:28;17.30;99.90
56861;DHT22;42744;51.094;3.490;2022-08-11T06:23:03;17.50;99.90
56861;DHT22;42744;51.094;3.490;2022-08-11T06:25:31;17.60;99.90
56861;DHT22;42744;51.094;3.490;2022-08-11T06:27:58;17.70;99.90
56861;DHT22;42744;51.094;3.490;2022-08-11T06:30:40;17.70;99.90
56861;DHT22;42744;51.094;3.490;2022-08-11T06:33:10;17.80;99.90
56861;DHT22;42744;51.094;3.490;2022-08-11T06:41:45;18.00;99.90
56861;DHT22;42744;51.094;3.490;2022-08-11T06:46:46;18.00;99.90
56861;DHT22;42744;51.094;3.490;2022-08-11T06:49:14;18.10;99.90
56861;DHT22;42744;51.094;3.490;2022-08-11T06:52:05;18.20;99.90
56861;DHT22;42744;51.094;3.490;2022-08-11T06:54:41;18.30;99.90
56861;DHT22;42744;51.094;3.490;2022-08-11T06:57:13;18.30;99.90
56861;DHT22;42744;51.094;3.490;2022-08-11T07:00:01;18.40;99.90
56861;DHT22;42744;51.094;3.490;2022-08-11T07:03:11;18.50;99.90
56861;DHT22;42744;51.094;3.490;2022-08-11T07:11:59;19.00;99.90
56861;DHT22;42744;51.094;3.490;2022-08-11T07:14:50;19.10;99.90
56861;DHT22;42744;51.094;3.490;2022-08-11T07:17:45;19.10;99.90
56861;DHT22;42744;51.094;3.490;2022-08-11T07:20:15;19.30;99.90
56861;DHT22;42744;51.094;3.490;2022-08-11T07:23:02;19.40;99.90
56861;DHT22;42744;51.094;3.490;2022-08-11T07:25:51;19.60;99.90
56861;DHT22;42744;51.094;3.490;2022-08-11T07:28:41;20.00;99.90
56861;DHT22;42744;51.094;3.490;2022-08-11T07:31:36;20.20;99.90
56861;DHT22;42744;51.094;3.490;2022-08-11T07:34:17;20.30;99.90
56861;DHT22;42744;51.094;3.490;2022-08-11T07:36:56;20.60;99.90
56861;DHT22;42744;51.094;3.490;2022-08-11T07:39:33;20.80;99.90
56861;DHT22;42744;51.094;3.490;2022-08-11T07:42:09;21.10;99.90
56861;DHT22;42744;51.094;3.490;2022-08-11T07:44:35;21.30;99.90
56861;DHT22;42744;51.094;3.490;2022-08-11T07:47:26;21.50;99.90
56861;DHT22;42744;51.094;3.490;2022-08-11T07:50:11;21.50;99.90
56861;DHT22;42744;51.094;3.490;2022-08-11T07:53:00;21.40;99.90
56861;DHT22;42744;51.094;3.490;2022-08-11T07:55:27;21.60;99.90
56861;DHT22;42744;51.094;3.490;2022-08-11T07:57:57;21.60;99.90
56861;DHT22;42744;51.094;3.490;2022-08-11T08:00:46;21.70;99.90
56861;DHT22;42744;51.094;3.490;2022-08-11T08:03:32;21.90;99.90
56861;DHT22;42744;51.094;3.490;2022-08-11T08:06:18;22.10;99.90
56861;DHT22;42744;51.094;3.490;2022-08-11T08:09:03;22.30;99.90
56861;DHT22;42744;51.094;3.490;2022-08-11T08:11:49;22.30;99.90
56861;DHT22;42744;51.094;3.490;2022-08-11T08:14:35;22.50;99.90
56861;DHT22;42744;51.094;3.490;2022-08-11T08:17:21;22.50;99.90
56861;DHT22;42744;51.094;3.490;2022-08-11T08:20:10;22.50;99.90
56861;DHT22;42744;51.094;3.490;2022-08-11T08:22:38;22.50;99.90
56861;DHT22;42744;51.094;3.490;2022-08-11T08:25:05;22.80;99.90
56861;DHT22;42744;51.094;3.490;2022-08-11T08:27:34;23.00;99.90
56861;DHT22;42744;51.094;3.490;2022-08-11T08:30:02;23.10;99.90
56861;DHT22;42744;51.094;3.490;2022-08-11T08:32:47;23.10;99.90
56861;DHT22;42744;51.094;3.490;2022-08-11T08:35:14;23.20;99.70
56861;DHT22;42744;51.094;3.490;2022-08-11T08:37:40;23.50;99.90
56861;DHT22;42744;51.094;3.490;2022-08-11T08:40:08;23.70;97.80
56861;DHT22;42744;51.094;3.490;2022-08-11T08:42:39;23.80;97.80
56861;DHT22;42744;51.094;3.490;2022-08-11T08:45:10;23.80;97.40
56861;DHT22;42744;51.094;3.490;2022-08-11T08:47:43;23.90;97.00
56861;DHT22;42744;51.094;3.490;2022-08-11T08:50:13;23.90;98.20
56861;DHT22;42744;51.094;3.490;2022-08-11T08:53:03;24.10;97.10
56861;DHT22;42744;51.094;3.490;2022-08-11T08:55:31;24.50;94.80
56861;DHT22;42744;51.094;3.490;2022-08-11T08:57:59;24.70;93.60
56861;DHT22;42744;51.094;3.490;2022-08-11T09:00:36;24.90;92.20
56861;DHT22;42744;51.094;3.490;2022-08-11T09:03:03;25.10;92.30
56861;DHT22;42744;51.094;3.490;2022-08-11T09:05:29;25.20;92.20
56861;DHT22;42744;51.094;3.490;2022-08-11T09:07:55;25.30;91.00
56861;DHT22;42744;51.094;3.490;2022-08-11T09:10:23;25.50;91.00
56861;DHT22;42744;51.094;3.490;2022-08-11T09:12:49;25.70;90.90
56861;DHT22;42744;51.094;3.490;2022-08-11T09:15:17;25.80;89.70
56861;DHT22;42744;51.094;3.490;2022-08-11T09:17:44;25.90;88.30
56861;DHT22;42744;51.094;3.490;2022-08-11T09:20:26;26.00;89.10
56861;DHT22;42744;51.094;3.490;2022-08-11T09:23:03;26.10;89.90
56861;DHT22;42744;51.094;3.490;2022-08-11T09:25:50;26.10;89.30
56861;DHT22;42744;51.094;3.490;2022-08-11T09:28:36;26.40;85.70
56861;DHT22;42744;51.094;3.490;2022-08-11T09:31:04;26.60;88.60
56861;DHT22;42744;51.094;3.490;2022-08-11T09:33:32;26.60;83.90
56861;DHT22;42744;51.094;3.490;2022-08-11T09:35:59;26.80;82.50
56861;DHT22;42744;51.094;3.490;2022-08-11T09:38:45;27.00;81.60
56861;DHT22;42744;51.094;3.490;2022-08-11T09:41:31;27.00;82.00
56861;DHT22;42744;51.094;3.490;2022-08-11T09:43:59;27.20;80.20
56861;DHT22;42744;51.094;3.490;2022-08-11T09:46:44;27.30;77.80
56861;DHT22;42744;51.094;3.490;2022-08-11T09:49:11;27.50;78.90
56861;DHT22;42744;51.094;3.490;2022-08-11T09:51:37;27.50;78.40
56861;DHT22;42744;51.094;3.490;2022-08-11T09:54:04;27.60;78.70
56861;DHT22;42744;51.094;3.490;2022-08-11T09:56:33;27.60;75.50
56861;DHT22;42744;51.094;3.490;2022-08-11T09:59:21;27.90;75.10
56861;DHT22;42744;51.094;3.490;2022-08-11T10:01:51;28.00;73.30
56861;DHT22;42744;51.094;3.490;2022-08-11T10:04:25;28.10;74.90
56861;DHT22;42744;51.094;3.490;2022-08-11T10:06:56;28.30;73.80
56861;DHT22;42744;51.094;3.490;2022-08-11T10:09:39;28.30;73.00
56861;DHT22;42744;51.094;3.490;2022-08-11T10:12:11;28.50;74.00
56861;DHT22;42744;51.094;3.490;2022-08-11T10:14:43;28.50;75.40
56861;DHT22;42744;51.094;3.490;2022-08-11T10:17:32;28.60;73.20
56861;DHT22;42744;51.094;3.490;2022-08-11T10:20:04;28.80;74.20
56861;DHT22;42744;51.094;3.490;2022-08-11T10:22:33;28.80;72.10
56861;DHT22;42744;51.094;3.490;2022-08-11T10:25:20;28.90;71.90
56861;DHT22;42744;51.094;3.490;2022-08-11T10:28:07;29.10;71.50
56861;DHT22;42744;51.094;3.490;2022-08-11T10:30:34;29.20;74.50
56861;DHT22;42744;51.094;3.490;2022-08-11T10:33:20;29.30;68.20
56861;DHT22;42744;51.094;3.490;2022-08-11T10:36:06;29.30;68.20
56861;DHT22;42744;51.094;3.490;2022-08-11T10:38:33;29.30;67.30
56861;DHT22;42744;51.094;3.490;2022-08-11T10:41:00;29.30;67.50
56861;DHT22;42744;51.094;3.490;2022-08-11T10:43:45;29.40;66.00
56861;DHT22;42744;51.094;3.490;2022-08-11T10:46:12;29.50;67.40
56861;DHT22;42744;51.094;3.490;2022-08-11T10:48:58;29.60;65.90
56861;DHT22;42744;51.094;3.490;2022-08-11T10:51:26;29.70;66.00
56861;DHT22;42744;51.094;3.490;2022-08-11T10:54:12;29.80;66.00
56861;DHT22;42744;51.094;3.490;2022-08-11T10:56:58;29.90;65.90
56861;DHT22;42744;51.094;3.490;2022-08-11T10:59:44;30.10;64.90
56861;DHT22;42744;51.094;3.490;2022-08-11T11:02:15;30.20;64.70
56861;DHT22;42744;51.094;3.490;2022-08-11T11:05:09;30.30;63.50
56861;DHT22;42744;51.094;3.490;2022-08-11T11:07:42;30.40;64.20
56861;DHT22;42744;51.094;3.490;2022-08-11T11:10:11;30.50;64.40
56861;DHT22;42744;51.094;3.490;2022-08-11T11:12:45;30.70;66.00
56861;DHT22;42744;51.094;3.490;2022-08-11T11:15:33;30.90;63.60
56861;DHT22;42744;51.094;3.490;2022-08-11T11:18:27;31.30;65.90
56861;DHT22;42744;51.094;3.490;2022-08-11T11:21:12;31.50;63.40
56861;DHT22;42744;51.094;3.490;2022-08-11T11:37:52;32.20;62.00
56861;DHT22;42744;51.094;3.490;2022-08-11T11:40:20;32.40;62.20
56861;DHT22;42744;51.094;3.490;2022-08-11T11:42:49;32.50;60.80
56861;DHT22;42744;51.094;3.490;2022-08-11T11:45:20;32.50;60.10
56861;DHT22;42744;51.094;3.490;2022-08-11T11:47:48;32.60;60.50
56861;DHT22;42744;51.094;3.490;2022-08-11T11:50:27;32.80;60.80
56861;DHT22;42744;51.094;3.490;2022-08-11T11:52:54;32.80;60.70
56861;DHT22;42744;51.094;3.490;2022-08-11T11:55:23;32.80;58.50
56861;DHT22;42744;51.094;3.490;2022-08-11T11:57:51;33.00;60.50
56861;DHT22;42744;51.094;3.490;2022-08-11T12:00:38;33.00;60.30
56861;DHT22;42744;51.094;3.490;2022-08-11T12:03:24;33.20;60.00
56861;DHT22;42744;51.094;3.490;2022-08-11T12:05:52;33.40;59.00
56861;DHT22;42744;51.094;3.490;2022-08-11T12:08:20;33.30;57.90
56861;DHT22;42744;51.094;3.490;2022-08-11T12:10:50;33.10;60.50
56861;DHT22;42744;51.094;3.490;2022-08-11T12:13:38;33.10;58.20
56861;DHT22;42744;51.094;3.490;2022-08-11T12:16:12;33.30;57.40
56861;DHT22;42744;51.094;3.490;2022-08-11T12:18:40;33.50;59.40
56861;DHT22;42744;51.094;3.490;2022-08-11T12:21:08;33.90;57.40
56861;DHT22;42744;51.094;3.490;2022-08-11T12:23:36;33.90;57.20
56861;DHT22;42744;51.094;3.490;2022-08-11T12:26:22;33.90;56.80
56861;DHT22;42744;51.094;3.490;2022-08-11T12:29:25;34.10;56.30
56861;DHT22;42744;51.094;3.490;2022-08-11T12:31:53;34.40;56.60
56861;DHT22;42744;51.094;3.490;2022-08-11T12:34:20;34.50;57.70
56861;DHT22;42744;51.094;3.490;2022-08-11T12:39:24;34.80;56.90
56861;DHT22;42744;51.094;3.490;2022-08-11T12:42:13;35.20;54.70
56861;DHT22;42744;51.094;3.490;2022-08-11T12:44:58;35.10;55.80
56861;DHT22;42744;51.094;3.490;2022-08-11T12:47:48;35.20;56.30
56861;DHT22;42744;51.094;3.490;2022-08-11T12:50:34;35.30;56.40
56861;DHT22;42744;51.094;3.490;2022-08-11T12:53:25;35.20;54.30
56861;DHT22;42744;51.094;3.490;2022-08-11T12:56:01;34.70;55.30
56861;DHT22;42744;51.094;3.490;2022-08-11T12:58:48;34.60;55.80
56861;DHT22;42744;51.094;3.490;2022-08-11T13:01:15;34.70;55.00
56861;DHT22;42744;51.094;3.490;2022-08-11T13:04:00;34.80;55.50
56861;DHT22;42744;51.094;3.490;2022-08-11T13:06:45;35.10;53.60
56861;DHT22;42744;51.094;3.490;2022-08-11T13:09:11;35.10;55.70
56861;DHT22;42744;51.094;3.490;2022-08-11T13:11:38;35.10;54.40
56861;DHT22;42744;51.094;3.490;2022-08-11T13:14:28;34.90;54.90
56861;DHT22;42744;51.094;3.490;2022-08-11T13:16:56;34.90;53.70
56861;DHT22;42744;51.094;3.490;2022-08-11T13:19:42;34.90;54.30
56861;DHT22;42744;51.094;3.490;2022-08-11T13:22:08;35.00;52.90
56861;DHT22;42744;51.094;3.490;2022-08-11T13:24:36;35.00;54.00
56861;DHT22;42744;51.094;3.490;2022-08-11T13:27:03;35.10;53.50
56861;DHT22;42744;51.094;3.490;2022-08-11T13:29:30;35.40;53.70
56861;DHT22;42744;51.094;3.490;2022-08-11T13:31:57;35.80;53.50
56861;DHT22;42744;51.094;3.490;2022-08-11T13:34:27;36.10;52.80
56861;DHT22;42744;51.094;3.490;2022-08-11T13:36:58;36.00;51.60
56861;DHT22;42744;51.094;3.490;2022-08-11T13:39:27;35.90;53.50
56861;DHT22;42744;51.094;3.490;2022-08-11T13:41:55;36.30;52.90
56861;DHT22;42744;51.094;3.490;2022-08-11T13:44:24;36.30;53.30
56861;DHT22;42744;51.094;3.490;2022-08-11T13:47:02;36.60;52.80
56861;DHT22;42744;51.094;3.490;2022-08-11T13:49:35;36.50;51.90
56861;DHT22;42744;51.094;3.490;2022-08-11T13:52:02;36.30;51.30
56861;DHT22;42744;51.094;3.490;2022-08-11T13:54:30;35.90;51.60
56861;DHT22;42744;51.094;3.490;2022-08-11T13:57:06;36.00;51.30
56861;DHT22;42744;51.094;3.490;2022-08-11T13:59:33;36.50;51.00
56861;DHT22;42744;51.094;3.490;2022-08-11T14:02:03;36.70;52.20
56861;DHT22;42744;51.094;3.490;2022-08-11T14:04:32;37.00;50.50
56861;DHT22;42744;51.094;3.490;2022-08-11T14:07:02;36.80;51.60
56861;DHT22;42744;51.094;3.490;2022-08-11T14:09:35;36.70;51.30
56861;DHT22;42744;51.094;3.490;2022-08-11T14:12:07;36.60;52.20
56861;DHT22;42744;51.094;3.490;2022-08-11T14:15:20;36.40;51.50
56861;DHT22;42744;51.094;3.490;2022-08-11T14:17:56;36.20;50.70
56861;DHT22;42744;51.094;3.490;2022-08-11T14:20:28;35.90;51.70
56861;DHT22;42744;51.094;3.490;2022-08-11T14:23:15;35.80;51.30
56861;DHT22;42744;51.094;3.490;2022-08-11T14:25:42;35.30;51.90
56861;DHT22;42744;51.094;3.490;2022-08-11T14:28:30;35.20;50.60
56861;DHT22;42744;51.094;3.490;2022-08-11T14:31:00;34.90;51.30
56861;DHT22;42744;51.094;3.490;2022-08-11T14:33:27;35.10;52.30
56861;DHT22;42744;51.094;3.490;2022-08-11T14:35:53;35.10;51.60
56861;DHT22;42744;51.094;3.490;2022-08-11T14:38:19;35.20;52.40
56861;DHT22;42744;51.094;3.490;2022-08-11T14:40:46;35.30;52.00
56861;DHT22;42744;51.094;3.490;2022-08-11T14:43:32;35.50;53.10
56861;DHT22;42744;51.094;3.490;2022-08-11T14:46:16;35.80;52.80
56861;DHT22;42744;51.094;3.490;2022-08-11T14:49:02;36.00;51.40
56861;DHT22;42744;51.094;3.490;2022-08-11T14:51:28;35.70;51.00
56861;DHT22;42744;51.094;3.490;2022-08-11T14:53:54;35.60;51.00
56861;DHT22;42744;51.094;3.490;2022-08-11T14:56:41;35.50;52.40
56861;DHT22;42744;51.094;3.490;2022-08-11T14:59:10;35.40;51.80
56861;DHT22;42744;51.094;3.490;2022-08-11T15:01:37;35.60;52.10
56861;DHT22;42744;51.094;3.490;2022-08-11T15:04:22;35.60;52.50
56861;DHT22;42744;51.094;3.490;2022-08-11T15:06:49;35.50;51.90
56861;DHT22;42744;51.094;3.490;2022-08-11T15:09:15;35.40;52.20
56861;DHT22;42744;51.094;3.490;2022-08-11T15:11:42;35.20;50.40
56861;DHT22;42744;51.094;3.490;2022-08-11T15:14:28;35.10;51.80
56861;DHT22;42744;51.094;3.490;2022-08-11T15:17:14;35.10;51.80
56861;DHT22;42744;51.094;3.490;2022-08-11T15:19:43;35.30;51.80
56861;DHT22;42744;51.094;3.490;2022-08-11T15:22:28;35.50;52.40
56861;DHT22;42744;51.094;3.490;2022-08-11T15:25:13;35.50;51.60
56861;DHT22;42744;51.094;3.490;2022-08-11T15:27:40;35.50;51.70
56861;DHT22;42744;51.094;3.490;2022-08-11T15:30:26;35.60;51.90
56861;DHT22;42744;51.094;3.490;2022-08-11T15:33:14;35.60;52.40
56861;DHT22;42744;51.094;3.490;2022-08-11T15:36:03;35.50;50.90
56861;DHT22;42744;51.094;3.490;2022-08-11T15:38:57;35.20;51.40
56861;DHT22;42744;51.094;3.490;2022-08-11T15:41:44;35.00;51.60
56861;DHT22;42744;51.094;3.490;2022-08-11T15:44:32;34.90;51.80
56861;DHT22;42744;51.094;3.490;2022-08-11T15:47:21;34.60;51.60
56861;DHT22;42744;51.094;3.490;2022-08-11T15:49:50;34.60;52.90
56861;DHT22;42744;51.094;3.490;2022-08-11T15:52:20;34.80;52.40
56861;DHT22;42744;51.094;3.490;2022-08-11T15:54:47;34.80;51.30
56861;DHT22;42744;51.094;3.490;2022-08-11T15:57:15;34.90;52.60
56861;DHT22;42744;51.094;3.490;2022-08-11T16:00:03;35.10;52.70
56861;DHT22;42744;51.094;3.490;2022-08-11T16:02:50;35.00;51.50
56861;DHT22;42744;51.094;3.490;2022-08-11T16:05:21;34.90;50.70
56861;DHT22;42744;51.094;3.490;2022-08-11T16:07:48;34.80;52.90
56861;DHT22;42744;51.094;3.490;2022-08-11T16:10:18;34.70;51.20
56861;DHT22;42744;51.094;3.490;2022-08-11T16:12:59;34.40;52.20
56861;DHT22;42744;51.094;3.490;2022-08-11T16:15:52;34.30;52.10
56861;DHT22;42744;51.094;3.490;2022-08-11T16:18:57;34.20;51.80
56861;DHT22;42744;51.094;3.490;2022-08-11T16:21:27;33.90;52.20
56861;DHT22;42744;51.094;3.490;2022-08-11T16:23:58;33.80;53.00
56861;DHT22;42744;51.094;3.490;2022-08-11T16:26:26;33.80;53.90
56861;DHT22;42744;51.094;3.490;2022-08-11T16:28:56;33.80;53.10
56861;DHT22;42744;51.094;3.490;2022-08-11T16:31:23;33.60;52.90
56861;DHT22;42744;51.094;3.490;2022-08-11T16:33:51;33.70;53.10
56861;DHT22;42744;51.094;3.490;2022-08-11T16:36:20;33.60;53.80
56861;DHT22;42744;51.094;3.490;2022-08-11T16:39:07;33.40;53.10
56861;DHT22;42744;51.094;3.490;2022-08-11T16:41:35;33.10;53.40
56861;DHT22;42744;51.094;3.490;2022-08-11T16:44:21;32.80;53.10
56861;DHT22;42744;51.094;3.490;2022-08-11T16:47:13;32.60;53.70
56861;DHT22;42744;51.094;3.490;2022-08-11T16:49:43;32.40;53.80
56861;DHT22;42744;51.094;3.490;2022-08-11T16:52:12;32.30;55.10
56861;DHT22;42744;51.094;3.490;2022-08-11T16:54:39;32.10;54.10
56861;DHT22;42744;51.094;3.490;2022-08-11T16:57:12;32.10;54.30
56861;DHT22;42744;51.094;3.490;2022-08-11T16:59:59;32.10;55.30
56861;DHT22;42744;51.094;3.490;2022-08-11T17:02:31;32.00;54.30
56861;DHT22;42744;51.094;3.490;2022-08-11T17:05:18;32.00;55.40
56861;DHT22;42744;51.094;3.490;2022-08-11T17:08:06;31.90;55.20
56861;DHT22;42744;51.094;3.490;2022-08-11T17:11:02;31.70;54.90
56861;DHT22;42744;51.094;3.490;2022-08-11T17:13:54;31.60;55.00
56861;DHT22;42744;51.094;3.490;2022-08-11T17:16:31;31.40;54.70
56861;DHT22;42744;51.094;3.490;2022-08-11T17:21:42;31.20;55.80
56861;DHT22;42744;51.094;3.490;2022-08-11T17:24:29;31.10;55.90
56861;DHT22;42744;51.094;3.490;2022-08-11T17:26:58;31.00;56.20
56861;DHT22;42744;51.094;3.490;2022-08-11T17:32:07;30.70;56.50
56861;DHT22;42744;51.094;3.490;2022-08-11T17:34:55;30.60;56.60
56861;DHT22;42744;51.094;3.490;2022-08-11T17:37:42;30.40;56.80
56861;DHT22;42744;51.094;3.490;2022-08-11T17:40:10;30.40;57.40
56861;DHT22;42744;51.094;3.490;2022-08-11T17:42:39;30.20;57.20
56861;DHT22;42744;51.094;3.490;2022-08-11T17:45:25;30.20;57.40
56861;DHT22;42744;51.094;3.490;2022-08-11T17:48:11;30.10;57.70
56861;DHT22;42744;51.094;3.490;2022-08-11T17:50:53;30.00;58.70
56861;DHT22;42744;51.094;3.490;2022-08-11T17:53:21;29.90;58.90
56861;DHT22;42744;51.094;3.490;2022-08-11T17:56:07;29.70;58.20
56861;DHT22;42744;51.094;3.490;2022-08-11T17:58:53;29.60;58.20
56861;DHT22;42744;51.094;3.490;2022-08-11T18:01:40;29.60;58.20
56861;DHT22;42744;51.094;3.490;2022-08-11T18:04:09;29.50;58.90
56861;DHT22;42744;51.094;3.490;2022-08-11T18:06:36;29.50;59.20
56861;DHT22;42744;51.094;3.490;2022-08-11T18:09:14;29.40;59.40
56861;DHT22;42744;51.094;3.490;2022-08-11T18:12:01;29.40;59.80
56861;DHT22;42744;51.094;3.490;2022-08-11T18:14:48;29.20;60.00
56861;DHT22;42744;51.094;3.490;2022-08-11T18:17:35;29.10;60.30
56861;DHT22;42744;51.094;3.490;2022-08-11T18:20:20;29.10;60.60
56861;DHT22;42744;51.094;3.490;2022-08-11T18:23:15;29.00;61.00
56861;DHT22;42744;51.094;3.490;2022-08-11T18:26:01;28.80;61.40
56861;DHT22;42744;51.094;3.490;2022-08-11T18:28:49;28.80;61.10
56861;DHT22;42744;51.094;3.490;2022-08-11T18:31:38;28.70;61.50
56861;DHT22;42744;51.094;3.490;2022-08-11T18:34:30;28.60;61.70
56861;DHT22;42744;51.094;3.490;2022-08-11T18:37:21;28.50;61.90
56861;DHT22;42744;51.094;3.490;2022-08-11T18:40:11;28.40;62.20
56861;DHT22;42744;51.094;3.490;2022-08-11T18:43:01;28.30;62.20
56861;DHT22;42744;51.094;3.490;2022-08-11T18:45:49;28.20;62.50
56861;DHT22;42744;51.094;3.490;2022-08-11T18:48:38;28.10;62.70
56861;DHT22;42744;51.094;3.490;2022-08-11T18:51:24;28.10;63.40
56861;DHT22;42744;51.094;3.490;2022-08-11T18:54:11;27.90;63.50
56861;DHT22;42744;51.094;3.490;2022-08-11T18:57:00;27.70;63.70
56861;DHT22;42744;51.094;3.490;2022-08-11T18:59:46;27.70;64.00
56861;DHT22;42744;51.094;3.490;2022-08-11T19:02:35;27.50;64.40
56861;DHT22;42744;51.094;3.490;2022-08-11T19:05:21;27.40;65.10
56861;DHT22;42744;51.094;3.490;2022-08-11T19:08:07;27.20;65.30
56861;DHT22;42744;51.094;3.490;2022-08-11T19:10:55;27.10;65.50
56861;DHT22;42744;51.094;3.490;2022-08-11T19:13:42;27.00;65.40
56861;DHT22;42744;51.094;3.490;2022-08-11T19:16:29;27.00;65.70
56861;DHT22;42744;51.094;3.490;2022-08-11T19:19:15;26.80;66.50
56861;DHT22;42744;51.094;3.490;2022-08-11T19:22:02;26.70;66.40
56861;DHT22;42744;51.094;3.490;2022-08-11T19:24:47;26.70;67.80
56861;DHT22;42744;51.094;3.490;2022-08-11T19:27:33;26.60;66.50
56861;DHT22;42744;51.094;3.490;2022-08-11T19:30:18;26.50;67.30
56861;DHT22;42744;51.094;3.490;2022-08-11T19:33:03;26.40;68.40
56861;DHT22;42744;51.094;3.490;2022-08-11T19:35:49;26.20;68.60
56861;DHT22;42744;51.094;3.490;2022-08-11T19:38:35;26.10;68.70
56861;DHT22;42744;51.094;3.490;2022-08-11T19:41:21;26.00;68.70
56861;DHT22;42744;51.094;3.490;2022-08-11T19:44:07;25.90;69.50
56861;DHT22;42744;51.094;3.490;2022-08-11T19:46:52;25.80;69.20
56861;DHT22;42744;51.094;3.490;2022-08-11T19:49:39;25.70;69.50
56861;DHT22;42744;51.094;3.490;2022-08-11T19:52:27;25.60;69.30
56861;DHT22;42744;51.094;3.490;2022-08-11T19:55:13;25.50;69.60
56861;DHT22;42744;51.094;3.490;2022-08-11T19:58:00;25.50;70.50
56861;DHT22;42744;51.094;3.490;2022-08-11T20:00:46;25.30;69.30
56861;DHT22;42744;51.094;3.490;2022-08-11T20:03:31;25.30;71.10
56861;DHT22;42744;51.094;3.490;2022-08-11T20:06:16;25.30;69.90